createdAt,value
2022-09-21T00:01:19.801Z,101791.72
2022-09-21T00:03:47.150Z,101786.97
2022-09-21T00:06:18.707Z,101782.53
2022-09-21T00:08:46.734Z,101778.25
2022-09-21T00:11:20.578Z,101779.53
2022-09-21T00:13:47.838Z,101777.91
2022-09-21T00:16:16.637Z,101786.72
2022-09-21T00:18:43.821Z,101780.00
2022-09-21T00:21:13.134Z,101786.72
2022-09-21T00:23:41.630Z,101778.81
2022-09-21T00:26:14.668Z,101776.50
2022-09-21T00:28:42.051Z,101783.72
2022-09-21T00:31:12.389Z,101783.47
2022-09-21T00:33:41.055Z,101784.75
2022-09-21T00:36:17.067Z,101783.47
2022-09-21T00:38:45.342Z,101787.91
2022-09-21T00:41:13.664Z,101790.22
2022-09-21T00:43:45.355Z,101787.91
2022-09-21T00:46:24.968Z,101775.09
2022-09-21T00:48:51.889Z,101780.56
2022-09-21T00:51:18.839Z,101778.81
2022-09-21T00:53:46.748Z,101779.53
2022-09-21T00:56:15.668Z,101774.63
2022-09-21T00:58:46.843Z,101776.28
2022-09-21T01:01:16.628Z,101783.00
2022-09-21T01:03:45.778Z,101767.78
2022-09-21T01:06:14.481Z,101768.16
2022-09-21T01:08:42.844Z,101773.72
2022-09-21T01:11:32.783Z,101772.91
2022-09-21T01:14:08.034Z,101764.22
2022-09-21T01:16:40.878Z,101772.56
2022-09-21T01:19:40.090Z,101764.66
2022-09-21T01:22:22.134Z,101768.28
2022-09-21T01:25:00.399Z,101760.25
2022-09-21T01:27:51.914Z,101753.84
2022-09-21T01:30:21.800Z,101754.19
2022-09-21T01:33:09.770Z,101749.44
2022-09-21T01:35:42.710Z,101757.00
2022-09-21T01:38:15.694Z,101754.19
2022-09-21T01:40:46.253Z,101755.72
2022-09-21T01:43:20.183Z,101748.03
2022-09-21T01:45:52.149Z,101749.19
2022-09-21T01:48:22.404Z,101741.66
2022-09-21T01:50:55.083Z,101744.94
2022-09-21T01:53:39.898Z,101746.09
2022-09-21T01:56:13.513Z,101743.28
2022-09-21T01:58:45.332Z,101745.25
2022-09-21T02:01:16.220Z,101740.84
2022-09-21T02:03:49.950Z,101730.88
2022-09-21T02:06:18.739Z,101735.25
2022-09-21T02:08:46.666Z,101728.91
2022-09-21T02:11:13.456Z,101721.22
2022-09-21T02:13:45.647Z,101721.56
2022-09-21T02:16:24.325Z,101721.94
2022-09-21T02:19:10.939Z,101715.06
2022-09-21T02:21:49.484Z,101714.63
2022-09-21T02:24:38.554Z,101714.94
2022-09-21T02:27:31.731Z,101718.09
2022-09-21T02:30:11.807Z,101702.88
2022-09-21T02:32:43.709Z,101702.88
2022-09-21T02:35:19.779Z,101710.06
2022-09-21T02:38:07.238Z,101712.53
2022-09-21T02:41:03.589Z,101710.06
2022-09-21T02:43:48.993Z,101711.25
2022-09-21T02:46:24.356Z,101706.81
2022-09-21T02:48:58.493Z,101699.66
2022-09-21T02:51:35.074Z,101698.34
2022-09-21T02:54:06.511Z,101700.34
2022-09-21T02:56:33.906Z,101697.06
2022-09-21T02:59:04.649Z,101695.00
2022-09-21T03:01:33.185Z,101688.16
2022-09-21T03:04:00.363Z,101684.88
2022-09-21T03:06:27.141Z,101690.34
2022-09-21T03:08:53.984Z,101680.72
2022-09-21T03:11:20.875Z,101680.59
2022-09-21T03:13:47.650Z,101685.19
2022-09-21T03:16:17.303Z,101680.34
2022-09-21T03:18:44.571Z,101673.00
2022-09-21T03:21:12.348Z,101680.09
2022-09-21T03:23:40.123Z,101681.13
2022-09-21T03:26:07.239Z,101673.00
2022-09-21T03:28:34.446Z,101678.91
2022-09-21T03:31:01.293Z,101674.84
2022-09-21T03:33:27.989Z,101673.09
2022-09-21T03:35:54.811Z,101677.75
2022-09-21T03:38:21.954Z,101675.19
2022-09-21T03:40:49.820Z,101678.16
2022-09-21T03:43:17.778Z,101676.44
2022-09-21T03:45:44.762Z,101673.19
2022-09-21T03:48:12.166Z,101666.34
2022-09-21T03:50:39.058Z,101673.41
2022-09-21T03:53:05.999Z,101665.75
2022-09-21T03:55:33.323Z,101666.78
2022-09-21T03:58:00.043Z,101659.13
2022-09-21T04:00:27.212Z,101656.66
2022-09-21T04:07:15.407Z,101643.75
2022-09-21T04:09:42.183Z,101657.41
2022-09-21T04:12:08.884Z,101651.59
2022-09-21T04:14:35.557Z,101651.13
2022-09-21T04:17:02.356Z,101657.81
2022-09-21T04:19:29.099Z,101661.97
2022-09-21T04:21:56.268Z,101652.69
2022-09-21T04:24:23.491Z,101658.59
2022-09-21T04:26:50.337Z,101658.00
2022-09-21T04:29:17.110Z,101662.59
2022-09-21T04:31:43.771Z,101663.25
2022-09-21T04:34:13.689Z,101668.69
2022-09-21T04:36:40.426Z,101662.00
2022-09-21T04:39:07.183Z,101664.31
2022-09-21T04:41:33.836Z,101668.41
2022-09-21T04:44:01.344Z,101667.50
2022-09-21T04:46:28.106Z,101668.97
2022-09-21T04:48:55.091Z,101671.53
2022-09-21T04:51:21.739Z,101665.47
2022-09-21T04:53:48.444Z,101670.31
2022-09-21T04:56:16.590Z,101658.50
2022-09-21T04:58:43.843Z,101657.81
2022-09-21T05:01:11.848Z,101663.84
2022-09-21T05:03:38.955Z,101655.50
2022-09-21T05:06:05.966Z,101659.00
2022-09-21T05:08:51.572Z,101661.44
2022-09-21T05:11:19.440Z,101661.78
2022-09-21T05:13:47.279Z,101662.56
2022-09-21T05:16:15.166Z,101657.81
2022-09-21T05:18:47.287Z,101661.88
2022-09-21T05:21:15.024Z,101663.19
2022-09-21T05:23:42.053Z,101667.59
2022-09-21T05:26:08.839Z,101660.84
2022-09-21T05:28:40.279Z,101667.25
2022-09-21T05:31:32.048Z,101664.59
2022-09-21T05:34:11.372Z,101668.19
2022-09-21T05:36:40.804Z,101660.31
2022-09-21T05:39:08.201Z,101662.75
2022-09-21T05:41:35.227Z,101669.47
2022-09-21T05:44:02.301Z,101668.31
2022-09-21T05:46:31.807Z,101667.63
2022-09-21T05:49:06.030Z,101662.06
2022-09-21T05:51:55.730Z,101662.06
2022-09-21T05:54:26.495Z,101660.47
2022-09-21T05:57:00.618Z,101664.84
2022-09-21T05:59:48.731Z,101664.84
2022-09-21T06:02:53.649Z,101661.59
2022-09-21T06:05:21.007Z,101656.41
2022-09-21T06:07:47.758Z,101655.09
2022-09-21T06:10:16.060Z,101650.22
2022-09-21T06:12:43.165Z,101653.69
2022-09-21T06:15:13.919Z,101650.91
2022-09-21T06:17:41.309Z,101654.84
2022-09-21T06:20:08.470Z,101654.84
2022-09-21T06:22:35.590Z,101658.06
2022-09-21T06:25:02.293Z,101656.25
2022-09-21T06:27:29.985Z,101647.22
2022-09-21T06:29:59.522Z,101660.09
2022-09-21T06:32:26.427Z,101654.69
2022-09-21T06:34:53.144Z,101658.84
2022-09-21T06:37:19.918Z,101655.06
2022-09-21T06:39:46.567Z,101660.72
2022-09-21T06:42:13.299Z,101655.28
2022-09-21T06:44:40.023Z,101651.81
2022-09-21T06:47:06.790Z,101657.53
2022-09-21T06:49:33.511Z,101654.03
2022-09-21T06:52:04.085Z,101652.66
2022-09-21T06:54:30.942Z,101650.00
2022-09-21T06:57:00.099Z,101653.25
2022-09-21T06:59:26.978Z,101651.41
2022-09-21T07:01:55.800Z,101648.72
2022-09-21T07:04:25.325Z,101642.25
2022-09-21T07:06:52.126Z,101646.44
2022-09-21T07:12:07.179Z,101640.53
2022-09-21T07:14:34.194Z,101647.16
2022-09-21T07:17:00.896Z,101643.00
2022-09-21T07:19:27.622Z,101644.03
2022-09-21T07:21:55.551Z,101652.97
2022-09-21T07:24:22.297Z,101644.00
2022-09-21T07:26:50.671Z,101645.03
2022-09-21T07:29:17.386Z,101636.44
2022-09-21T07:31:48.556Z,101637.69
2022-09-21T07:34:16.819Z,101630.72
2022-09-21T07:36:43.770Z,101634.44
2022-09-21T07:39:10.809Z,101635.22
2022-09-21T07:41:37.822Z,101631.75
2022-09-21T07:44:05.270Z,101636.16
2022-09-21T07:46:32.216Z,101638.72
2022-09-21T07:48:59.058Z,101633.31
2022-09-21T07:51:26.609Z,101631.91
2022-09-21T07:53:59.867Z,101634.47
2022-09-21T07:56:26.676Z,101640.97
2022-09-21T07:59:08.403Z,101633.50
2022-09-21T08:01:40.351Z,101636.72
2022-09-21T08:04:09.688Z,101623.59
2022-09-21T08:06:40.320Z,101628.47
2022-09-21T08:09:08.662Z,101628.59
2022-09-21T08:11:37.485Z,101624.28
2022-09-21T08:14:04.660Z,101625.53
2022-09-21T08:16:32.223Z,101622.38
2022-09-21T08:18:59.834Z,101613.66
2022-09-21T08:21:26.740Z,101606.91
2022-09-21T08:23:53.927Z,101610.16
2022-09-21T08:26:20.792Z,101606.63
2022-09-21T08:28:49.950Z,101605.97
2022-09-21T08:31:19.762Z,101607.22
2022-09-21T08:33:47.726Z,101607.78
2022-09-21T08:36:14.599Z,101607.06
2022-09-21T08:38:41.468Z,101607.25
2022-09-21T08:41:20.624Z,101611.50
2022-09-21T08:44:02.667Z,101597.88
2022-09-21T08:46:32.885Z,101599.50
2022-09-21T08:49:04.111Z,101608.69
2022-09-21T08:51:36.703Z,101597.88
2022-09-21T08:54:19.386Z,101603.88
2022-09-21T08:57:04.529Z,101610.78
2022-09-21T08:59:33.390Z,101605.34
2022-09-21T09:02:06.032Z,101598.41
2022-09-21T09:04:36.683Z,101609.03
2022-09-21T09:07:15.482Z,101597.47
2022-09-21T09:09:48.707Z,101603.72
2022-09-21T09:12:53.941Z,101597.91
2022-09-21T09:15:41.876Z,101601.94
2022-09-21T09:18:42.759Z,101606.38
2022-09-21T09:21:24.106Z,101609.47
2022-09-21T09:24:03.114Z,101612.06
2022-09-21T09:26:51.539Z,101590.34
2022-09-21T09:29:52.571Z,101599.22
2022-09-21T09:32:24.175Z,101591.91
2022-09-21T09:35:22.924Z,101589.53
2022-09-21T09:37:52.213Z,101590.28
2022-09-21T09:40:34.421Z,101590.00
2022-09-21T09:43:11.974Z,101592.22
2022-09-21T09:46:01.693Z,101589.03
2022-09-21T09:48:38.126Z,101581.97
2022-09-21T09:51:11.470Z,101570.47
2022-09-21T09:53:38.701Z,101581.81
2022-09-21T09:56:05.665Z,101578.59
2022-09-21T09:58:35.178Z,101573.81
2022-09-21T10:01:03.613Z,101567.78
2022-09-21T10:03:30.507Z,101575.44
2022-09-21T10:05:57.272Z,101569.41
2022-09-21T10:08:44.573Z,101557.69
2022-09-21T10:11:13.978Z,101559.56
2022-09-21T10:13:46.459Z,101560.09
2022-09-21T10:16:17.780Z,101545.44
2022-09-21T10:18:58.988Z,101547.91
2022-09-21T10:21:41.299Z,101551.91
2022-09-21T10:24:18.791Z,101558.31
2022-09-21T10:27:02.311Z,101552.50
2022-09-21T10:29:48.815Z,101547.28
2022-09-21T10:32:18.038Z,101559.13
2022-09-21T10:35:07.752Z,101552.03
2022-09-21T10:37:43.224Z,101550.25
2022-09-21T10:40:35.743Z,101540.13
2022-09-21T10:43:02.503Z,101548.16
2022-09-21T10:45:31.936Z,101547.22
2022-09-21T10:47:59.963Z,101547.09
2022-09-21T10:50:36.894Z,101542.59
2022-09-21T10:53:09.799Z,101539.19
2022-09-21T10:56:11.971Z,101535.69
2022-09-21T10:59:13.873Z,101532.34
2022-09-21T11:01:49.199Z,101530.22
2022-09-21T11:04:29.968Z,101527.63
2022-09-21T11:07:32.403Z,101530.84
2022-09-21T11:10:18.140Z,101523.19
2022-09-21T11:12:59.016Z,101521.16
2022-09-21T11:15:49.472Z,101525.13
2022-09-21T11:18:16.217Z,101517.56
2022-09-21T11:20:47.468Z,101518.13
2022-09-21T11:23:28.887Z,101515.31
2022-09-21T11:26:19.960Z,101510.53
2022-09-21T11:29:03.546Z,101505.69
2022-09-21T11:31:33.038Z,101506.47
2022-09-21T11:34:27.204Z,101507.31
2022-09-21T11:37:23.125Z,101488.59
2022-09-21T11:40:33.253Z,101492.16
2022-09-21T11:43:08.296Z,101492.16
2022-09-21T11:45:40.671Z,101487.00
2022-09-21T11:48:36.512Z,101485.50
2022-09-21T11:51:45.249Z,101481.09
2022-09-21T11:54:35.094Z,101489.03
2022-09-21T11:57:20.317Z,101478.91
2022-09-21T12:00:16.031Z,101470.38
2022-09-21T12:03:18.551Z,101472.03
2022-09-21T12:05:54.133Z,101477.34
2022-09-21T12:08:42.459Z,101468.19
2022-09-21T12:11:25.486Z,101486.69
2022-09-21T12:13:58.328Z,101477.06
2022-09-21T12:16:50.927Z,101462.59
2022-09-21T12:19:55.424Z,101462.56
2022-09-21T12:22:33.816Z,101461.28
2022-09-21T12:25:13.571Z,101465.66
2022-09-21T12:27:47.531Z,101464.72
2022-09-21T12:30:20.750Z,101460.97
2022-09-21T12:33:03.655Z,101454.69
2022-09-21T12:35:42.562Z,101463.69
2022-09-21T12:41:31.534Z,101451.13
2022-09-21T12:44:52.236Z,101441.19
2022-09-21T12:47:47.062Z,101439.25
2022-09-21T12:50:21.251Z,101434.91
2022-09-21T12:52:50.106Z,101428.56
2022-09-21T12:55:29.019Z,101429.78
2022-09-21T12:58:17.449Z,101428.97
2022-09-21T13:01:14.580Z,101428.56
2022-09-21T13:04:16.311Z,101431.72
2022-09-21T13:07:00.470Z,101430.81
2022-09-21T13:09:28.798Z,101433.88
2022-09-21T13:12:09.312Z,101428.56
2022-09-21T13:14:43.569Z,101427.66
2022-09-21T13:17:23.572Z,101423.94
2022-09-21T13:20:05.198Z,101423.94
2022-09-21T13:22:37.458Z,101421.19
2022-09-21T13:25:18.785Z,101422.06
2022-09-21T13:28:13.614Z,101411.66
2022-09-21T13:30:45.653Z,101412.53
2022-09-21T13:33:23.869Z,101406.97
2022-09-21T13:36:02.376Z,101406.56
2022-09-21T13:38:41.332Z,101400.25
2022-09-21T13:41:21.188Z,101409.13
2022-09-21T13:43:59.710Z,101399.06
2022-09-21T13:46:32.241Z,101398.72
2022-09-21T13:49:21.278Z,101395.59
2022-09-21T13:52:03.252Z,101400.03
2022-09-21T13:54:38.749Z,101395.19
2022-09-21T13:57:36.954Z,101397.13
2022-09-21T14:00:15.178Z,101386.97
2022-09-21T14:02:50.091Z,101384.53
2022-09-21T14:05:25.754Z,101386.94
2022-09-21T14:08:03.120Z,101394.91
2022-09-21T14:10:32.278Z,101388.47
2022-09-21T14:13:01.179Z,101377.66
2022-09-21T14:15:38.695Z,101372.44
2022-09-21T14:18:11.931Z,101377.66
2022-09-21T14:20:39.538Z,101367.63
2022-09-21T14:23:22.695Z,101363.66
2022-09-21T14:26:02.202Z,101367.66
2022-09-21T14:28:43.359Z,101369.22
2022-09-21T14:31:19.041Z,101371.69
2022-09-21T14:33:54.402Z,101356.47
2022-09-21T14:36:41.948Z,101371.31
2022-09-21T14:39:40.667Z,101359.28
2022-09-21T14:42:23.283Z,101354.94
2022-09-21T14:44:51.761Z,101350.19
2022-09-21T14:47:21.215Z,101343.84
2022-09-21T14:49:57.567Z,101349.50
2022-09-21T14:52:40.934Z,101326.25
2022-09-21T14:55:31.579Z,101335.50
2022-09-21T14:58:32.143Z,101327.13
2022-09-21T15:01:21.486Z,101312.84
2022-09-21T15:03:49.076Z,101303.34
2022-09-21T15:06:41.371Z,101300.25
2022-09-21T15:09:42.844Z,101303.06
2022-09-21T15:12:26.075Z,101300.31
2022-09-21T15:15:20.467Z,101292.31
2022-09-21T15:17:59.822Z,101292.66
2022-09-21T15:20:29.617Z,101288.97
2022-09-21T15:22:58.520Z,101291.75
2022-09-21T15:25:28.391Z,101302.53
2022-09-21T15:27:55.690Z,101286.44
2022-09-21T15:30:29.393Z,101304.03
2022-09-21T15:32:59.786Z,101286.69
2022-09-21T15:35:29.383Z,101295.09
2022-09-21T15:38:00.138Z,101298.34
2022-09-21T15:40:36.548Z,101283.59
2022-09-21T15:43:21.021Z,101287.25
2022-09-21T15:46:01.206Z,101291.25
2022-09-21T15:48:39.143Z,101299.63
2022-09-21T15:51:24.815Z,101283.13
2022-09-21T15:53:56.734Z,101290.25
2022-09-21T15:56:25.872Z,101293.41
2022-09-21T15:59:08.871Z,101287.38
2022-09-21T16:01:44.218Z,101290.56
2022-09-21T16:04:19.879Z,101278.91
2022-09-21T16:07:08.185Z,101273.66
2022-09-21T16:09:46.222Z,101274.47
2022-09-21T16:12:43.138Z,101262.91
2022-09-21T16:15:25.585Z,101270.94
2022-09-21T16:18:02.971Z,101263.78
2022-09-21T16:20:45.918Z,101268.63
2022-09-21T16:23:15.918Z,101261.78
2022-09-21T16:25:43.518Z,101256.56
2022-09-21T16:28:16.471Z,101259.06
2022-09-21T16:30:55.182Z,101245.50
2022-09-21T16:33:56.981Z,101248.75
2022-09-21T16:36:26.449Z,101244.69
2022-09-21T16:38:53.708Z,101235.91
2022-09-21T16:41:21.526Z,101233.09
2022-09-21T16:43:51.127Z,101231.09
2022-09-21T16:46:19.058Z,101223.06
2022-09-21T16:48:45.815Z,101232.19
2022-09-21T16:51:14.615Z,101228.91
2022-09-21T16:53:41.604Z,101217.63
2022-09-21T16:56:14.667Z,101221.59
2022-09-21T16:58:43.737Z,101218.72
2022-09-21T17:01:15.860Z,101211.03
2022-09-21T17:03:42.806Z,101217.81
2022-09-21T17:06:18.027Z,101227.38
2022-09-21T17:08:48.308Z,101223.31
2022-09-21T17:11:19.996Z,101219.28
2022-09-21T17:13:50.806Z,101207.25
2022-09-21T17:16:20.228Z,101205.22
2022-09-21T17:18:48.616Z,101200.78
2022-09-21T17:21:16.430Z,101197.53
2022-09-21T17:23:43.283Z,101200.28
2022-09-21T17:26:19.409Z,101205.50
2022-09-21T17:28:46.401Z,101199.00
2022-09-21T17:31:16.480Z,101201.75
2022-09-21T17:33:43.703Z,101201.66
2022-09-21T17:36:13.909Z,101210.44
2022-09-21T17:38:42.461Z,101199.16
2022-09-21T17:41:18.192Z,101203.13
2022-09-21T17:43:56.530Z,101197.06
2022-09-21T17:46:41.429Z,101197.84
2022-09-21T17:49:10.586Z,101192.22
2022-09-21T17:51:56.066Z,101196.16
2022-09-21T17:54:25.556Z,101191.25
2022-09-21T17:57:06.953Z,101188.84
2022-09-21T17:59:35.775Z,101186.41
2022-09-21T18:02:11.244Z,101186.75
2022-09-21T18:04:38.869Z,101191.88
2022-09-21T18:07:06.017Z,101197.84
2022-09-21T18:09:33.058Z,101186.19
2022-09-21T18:12:39.428Z,101186.53
2022-09-21T18:15:19.442Z,101190.88
2022-09-21T18:17:55.198Z,101194.03
2022-09-21T18:20:39.481Z,101201.97
2022-09-21T18:23:15.608Z,101203.13
2022-09-21T18:25:50.439Z,101204.72
2022-09-21T18:28:36.684Z,101197.81
2022-09-21T18:31:33.647Z,101204.13
2022-09-21T18:34:13.262Z,101209.69
2022-09-21T18:36:51.532Z,101221.63
2022-09-21T18:39:18.299Z,101203.19
2022-09-21T18:41:55.881Z,101211.09
2022-09-21T18:44:36.423Z,101217.03
2022-09-21T18:47:20.354Z,101213.38
2022-09-21T18:50:15.367Z,101209.28
2022-09-21T18:52:47.320Z,101199.59
2022-09-21T18:55:33.402Z,101207.13
2022-09-21T18:58:01.148Z,101206.28
2022-09-21T19:00:32.473Z,101211.41
2022-09-21T19:03:16.370Z,101209.41
2022-09-21T19:05:56.909Z,101211.31
2022-09-21T19:08:33.249Z,101208.03
2022-09-21T19:11:15.037Z,101205.56
2022-09-21T19:13:44.498Z,101197.56
2022-09-21T19:16:17.519Z,101203.16
2022-09-21T19:18:55.767Z,101201.09
2022-09-21T19:21:54.859Z,101199.06
2022-09-21T19:24:32.001Z,101204.66
2022-09-21T19:27:07.795Z,101203.00
2022-09-21T19:29:47.129Z,101197.44
2022-09-21T19:32:17.140Z,101191.00
2022-09-21T19:34:44.417Z,101183.78
2022-09-21T19:37:11.540Z,101183.69
2022-09-21T19:39:38.709Z,101197.22
2022-09-21T19:42:11.565Z,101196.44
2022-09-21T19:44:38.740Z,101190.78
2022-09-21T19:47:25.852Z,101195.56
2022-09-21T19:49:54.649Z,101189.91
2022-09-21T19:52:34.725Z,101187.06
2022-09-21T19:55:20.885Z,101203.00
2022-09-21T19:58:06.484Z,101191.03
2022-09-21T20:00:33.474Z,101193.00
2022-09-21T20:03:11.143Z,101191.41
2022-09-21T20:05:59.636Z,101196.19
2022-09-21T20:08:30.383Z,101184.13
2022-09-21T20:11:05.668Z,101178.13
2022-09-21T20:13:38.148Z,101174.81
2022-09-21T20:16:36.658Z,101177.69
2022-09-21T20:19:15.127Z,101186.81
2022-09-21T20:21:43.805Z,101190.34
2022-09-21T20:24:31.816Z,101184.75
2022-09-21T20:26:58.953Z,101192.78
2022-09-21T20:29:25.713Z,101190.41
2022-09-21T20:31:53.064Z,101186.88
2022-09-21T20:34:20.266Z,101188.47
2022-09-21T20:36:47.042Z,101190.50
2022-09-21T20:39:13.744Z,101187.31
2022-09-21T20:41:41.447Z,101175.31
2022-09-21T20:44:12.362Z,101162.56
2022-09-21T20:46:39.231Z,101166.50
2022-09-21T20:49:08.228Z,101172.09
2022-09-21T20:51:36.137Z,101160.94
2022-09-21T20:54:03.968Z,101163.28
2022-09-21T20:56:31.553Z,101158.13
2022-09-21T20:58:59.310Z,101161.75
2022-09-21T21:01:27.061Z,101152.16
2022-09-21T21:04:01.738Z,101157.00
2022-09-21T21:06:31.294Z,101149.84
2022-09-21T21:08:58.533Z,101152.28
2022-09-21T21:11:28.143Z,101154.69
2022-09-21T21:13:56.174Z,101150.75
2022-09-21T21:16:23.214Z,101148.75
2022-09-21T21:18:50.260Z,101140.38
2022-09-21T21:21:16.971Z,101148.38
2022-09-21T21:24:02.244Z,101142.78
2022-09-21T21:26:44.198Z,101134.78
2022-09-21T21:29:15.576Z,101143.94
2022-09-21T21:31:42.396Z,101141.59
2022-09-21T21:34:09.253Z,101133.59
2022-09-21T21:36:35.965Z,101128.38
2022-09-21T21:39:03.809Z,101132.78
2022-09-21T21:41:31.561Z,101134.78
2022-09-21T21:43:59.189Z,101132.34
2022-09-21T21:46:26.193Z,101136.34
2022-09-21T21:48:57.107Z,101127.50
2022-09-21T21:51:23.829Z,101135.88
2022-09-21T21:53:50.798Z,101121.91
2022-09-21T21:56:20.165Z,101117.53
2022-09-21T21:58:46.854Z,101125.09
2022-09-21T22:01:19.303Z,101134.66
2022-09-21T22:03:46.285Z,101122.66
2022-09-21T22:06:13.055Z,101126.66
2022-09-21T22:08:40.825Z,101123.47
2022-09-21T22:11:07.801Z,101120.31
2022-09-21T22:13:39.190Z,101124.72
2022-09-21T22:16:12.099Z,101125.91
2022-09-21T22:18:39.922Z,101128.25
2022-09-21T22:21:09.294Z,101123.84
2022-09-21T22:23:36.618Z,101125.41
2022-09-21T22:26:09.718Z,101121.38
2022-09-21T22:28:37.078Z,101117.78
2022-09-21T22:31:08.621Z,101119.75
2022-09-21T22:33:35.488Z,101104.16
2022-09-21T22:36:09.311Z,101105.78
2022-09-21T22:38:41.970Z,101101.00
2022-09-21T22:41:11.118Z,101104.97
2022-09-21T22:43:38.445Z,101102.56
2022-09-21T22:46:05.784Z,101095.34
2022-09-21T22:48:33.098Z,101097.78
2022-09-21T22:51:02.856Z,101095.34
2022-09-21T22:53:30.021Z,101093.75
2022-09-21T22:56:10.126Z,101092.56
2022-09-21T22:58:49.367Z,101102.56
2022-09-21T23:01:28.233Z,101093.75
2022-09-21T23:03:59.464Z,101083.75
2022-09-21T23:06:29.155Z,101084.19
2022-09-21T23:08:57.601Z,101080.59
2022-09-21T23:11:30.239Z,101074.63
2022-09-21T23:13:58.342Z,101078.59
2022-09-21T23:16:28.074Z,101069.78
2022-09-21T23:18:55.973Z,101075.38
2022-09-21T23:21:25.914Z,101075.38
2022-09-21T23:24:00.112Z,101061.81
2022-09-21T23:26:28.817Z,101069.38
2022-09-21T23:29:10.090Z,101058.94
2022-09-21T23:31:40.009Z,101052.19
2022-09-21T23:34:13.468Z,101063.38
2022-09-21T23:36:41.385Z,101052.19
2022-09-21T23:39:11.726Z,101056.16
2022-09-21T23:41:38.838Z,101053.34
2022-09-21T23:44:06.084Z,101058.56
2022-09-21T23:46:35.696Z,101045.78
2022-09-21T23:49:02.913Z,101041.00
2022-09-21T23:51:32.932Z,101047.78
2022-09-21T23:54:00.116Z,101037.75
2022-09-21T23:56:28.317Z,101040.13
2022-09-21T23:58:55.081Z,101038.50
